Graniteville, Vermont
Current Conditions -  °F | °C
As of 2:20 PM on Friday 28 Nov 2014 (Local Time) from KMPV Reporting Station
Light Snow Light Snow  
Wind Chill: 12°   Ceiling: 2700
Heat Index: 22°   Visibility: 1mi
Dew Point: 18°   Wind: 9mph
Humidity: 85%   Direction: 330°NNW
Pressure: 30.06"   Gusts: NA
Location:  44.15°N, 72.49°W
Report Text: KMPV 281920Z AUTO 33008KT 1SM -SN BR FEW020 BKN027 OVC034 M06/M08 A3006 RMK AO2 SNB11 P0000 T10561078
Loading
Personal Weather Stations






























Interactive Weather Map New forecast layout! Learn more

10-Day Weather Forecast

Advertisements
Track Severe Weather on mobile